Time;durP1;ratioP1;P1;durP2;ratioP2;P2;SDS_P1;SDS_P2;PMS_P1;PMS_P2;Temp;Humidity;BMP_temperature;BMP_pressure;BME280_temperature;BME280_humidity;BME280_pressure;Samples;Min_cycle;Max_cycle;Signal;HPM_P1;HPM_P2
2022/10/31 00:01:50;;;;;;;20.70;7.88;;;17.00;99.90;;;;;;5029901;28;20047;-84
2022/10/31 00:04:17;;;;;;;13.77;7.25;;;17.00;99.90;;;;;;5027580;28;20069;-84
2022/10/31 00:06:44;;;;;;;18.27;7.80;;;17.00;99.90;;;;;;5034414;22;20053;-85
2022/10/31 00:09:12;;;;;;;18.65;8.15;;;17.00;99.90;;;;;;5049786;28;20041;-85
2022/10/31 00:11:38;;;;;;;16.05;7.95;;;17.00;99.90;;;;;;5049688;28;20091;-85
2022/10/31 00:14:05;;;;;;;18.98;8.27;;;17.00;99.90;;;;;;5050012;28;20504;-85
2022/10/31 00:16:34;;;;;;;19.33;7.95;;;17.00;99.90;;;;;;5039392;28;20053;-85
2022/10/31 00:19:03;;;;;;;22.75;8.40;;;17.00;99.90;;;;;;5047431;28;20032;-85
2022/10/31 00:21:30;;;;;;;13.55;7.13;;;17.00;99.90;;;;;;5048686;28;20041;-86
2022/10/31 00:23:58;;;;;;;14.20;7.70;;;17.00;99.90;;;;;;5047649;28;20033;-86
2022/10/31 00:26:25;;;;;;;21.60;8.20;;;17.00;99.90;;;;;;5047912;28;20045;-85
2022/10/31 00:28:52;;;;;;;19.85;7.97;;;17.00;99.90;;;;;;5047288;28;20037;-85
2022/10/31 00:31:19;;;;;;;18.10;7.63;;;16.90;99.90;;;;;;5043454;28;20128;-85
2022/10/31 00:33:47;;;;;;;18.08;7.93;;;16.90;99.90;;;;;;5040455;28;20045;-86
2022/10/31 00:36:17;;;;;;;;;;;16.90;99.90;;;;;;5047067;28;20072;-85
2022/10/31 00:38:45;;;;;;;17.27;7.57;;;16.80;99.90;;;;;;5047341;28;19924;-86
2022/10/31 00:41:12;;;;;;;18.25;7.70;;;16.90;99.90;;;;;;5047790;28;20052;-86
2022/10/31 00:43:41;;;;;;;17.60;7.90;;;16.90;99.90;;;;;;5046612;28;20132;-85
2022/10/31 00:46:09;;;;;;;17.67;7.82;;;16.80;99.90;;;;;;5039609;28;20494;-86
2022/10/31 00:48:36;;;;;;;22.65;7.90;;;16.90;99.90;;;;;;5033541;28;20088;-86
2022/10/31 00:51:04;;;;;;;17.98;8.38;;;16.80;99.90;;;;;;5037455;28;20132;-85
2022/10/31 00:53:31;;;;;;;16.08;7.72;;;16.80;99.90;;;;;;5048342;28;20111;-85
2022/10/31 00:55:58;;;;;;;16.00;7.18;;;16.70;99.90;;;;;;5046357;28;20045;-86
2022/10/31 00:58:25;;;;;;;16.88;7.40;;;16.70;99.90;;;;;;5047241;28;20044;-86
2022/10/31 01:00:54;;;;;;;14.48;7.60;;;16.70;99.90;;;;;;5047194;28;20045;-86
2022/10/31 01:03:22;;;;;;;20.70;7.95;;;16.80;99.90;;;;;;5046172;28;20429;-85
2022/10/31 01:06:02;;;;;;;15.90;8.18;;;16.70;99.90;;;;;;5039378;28;20052;-86
2022/10/31 01:08:31;;;;;;;22.60;8.43;;;16.70;99.90;;;;;;5043024;28;20045;-86
2022/10/31 01:11:04;;;;;;;19.70;8.02;;;16.80;99.90;;;;;;5047343;28;20048;-86
2022/10/31 01:13:33;;;;;;;21.55;8.32;;;16.80;99.90;;;;;;5040302;28;20045;-86
2022/10/31 01:16:02;;;;;;;19.77;7.90;;;16.80;99.90;;;;;;5031026;28;20398;-86
2022/10/31 01:18:29;;;;;;;14.82;7.53;;;16.80;99.90;;;;;;5047943;28;20570;-86
2022/10/31 01:21:05;;;;;;;19.08;8.50;;;16.80;99.90;;;;;;5048541;28;20072;-86
2022/10/31 01:23:33;;;;;;;19.65;8.25;;;16.80;99.90;;;;;;5047346;28;20060;-86
2022/10/31 01:26:06;;;;;;;23.95;8.48;;;16.80;99.90;;;;;;5045877;28;20052;-86
2022/10/31 01:28:33;;;;;;;16.73;7.45;;;16.80;99.90;;;;;;5042348;28;20043;-86
2022/10/31 01:31:06;;;;;;;19.98;8.38;;;16.80;99.90;;;;;;5046801;28;20067;-86
2022/10/31 01:33:35;;;;;;;19.75;8.05;;;16.80;99.90;;;;;;5045917;28;20512;-86
2022/10/31 01:36:03;;;;;;;15.55;7.35;;;16.90;99.90;;;;;;5045857;28;20134;-86
2022/10/31 01:38:29;;;;;;;19.77;7.90;;;16.80;99.90;;;;;;5045205;28;20040;-85
2022/10/31 01:40:58;;;;;;;15.75;7.80;;;16.80;99.90;;;;;;5047863;28;20047;-86
2022/10/31 01:43:25;;;;;;;17.77;7.50;;;16.80;99.90;;;;;;5047055;28;20051;-85
2022/10/31 01:45:54;;;;;;;21.15;7.90;;;16.80;99.90;;;;;;5048581;28;20052;-85
2022/10/31 01:48:24;;;;;;;21.90;8.00;;;16.80;99.90;;;;;;5043033;28;20048;-85
2022/10/31 01:50:53;;;;;;;23.55;9.07;;;16.90;99.90;;;;;;5041850;28;20348;-85
2022/10/31 01:53:20;;;;;;;17.27;7.53;;;16.90;99.90;;;;;;5039452;28;20405;-86
2022/10/31 01:55:47;;;;;;;17.00;7.47;;;16.80;99.90;;;;;;5045386;28;20041;-86
2022/10/31 01:58:21;;;;;;;22.00;7.78;;;16.90;99.90;;;;;;5045776;28;20117;-85
2022/10/31 02:00:50;;;;;;;17.38;8.02;;;16.90;99.90;;;;;;5046792;28;20051;-86
2022/10/31 02:03:18;;;;;;;21.45;7.68;;;16.80;99.90;;;;;;5035305;28;20441;-85
2022/10/31 02:05:45;;;;;;;19.55;7.95;;;16.80;99.90;;;;;;5043228;28;20433;-86
2022/10/31 02:08:17;;;;;;;18.52;7.50;;;16.80;99.90;;;;;;5044936;28;20056;-86
2022/10/31 02:10:44;;;;;;;19.50;7.95;;;16.80;99.90;;;;;;5045444;28;20087;-86
2022/10/31 02:13:12;;;;;;;20.08;7.97;;;16.80;99.90;;;;;;5044464;28;20144;-86
2022/10/31 02:15:50;;;;;;;20.48;8.30;;;16.80;99.90;;;;;;5039062;28;20044;-86
2022/10/31 02:18:17;;;;;;;18.13;7.65;;;16.80;99.90;;;;;;5050203;28;20053;-86
2022/10/31 02:20:57;;;;;;;22.42;8.05;;;16.80;99.90;;;;;;5050451;28;20147;-86
2022/10/31 02:24:12;;;;;;;20.00;7.80;;;16.80;99.90;;;;;;5049261;28;20052;-85
2022/10/31 02:26:55;;;;;;;20.25;7.88;;;16.80;99.90;;;;;;5052608;28;20095;-86
2022/10/31 02:29:54;;;;;;;16.00;7.75;;;16.70;99.90;;;;;;5035302;28;20145;-86
2022/10/31 02:32:28;;;;;;;16.88;7.68;;;16.70;99.90;;;;;;5032557;28;20049;-86
2022/10/31 02:34:59;;;;;;;16.60;7.25;;;16.70;99.90;;;;;;5040432;28;20073;-86
2022/10/31 02:37:26;;;;;;;;;;;16.60;99.90;;;;;;5051715;28;20045;-86
2022/10/31 02:39:59;;;;;;;21.33;7.90;;;16.60;99.90;;;;;;5040882;28;19925;-86
2022/10/31 02:42:47;;;;;;;21.17;8.20;;;16.60;99.90;;;;;;5041678;28;20076;-86
2022/10/31 02:45:24;;;;;;;17.77;7.00;;;16.60;99.90;;;;;;5057286;28;20047;-86
2022/10/31 02:47:55;;;;;;;18.65;7.63;;;16.50;99.90;;;;;;5055884;28;20114;-86
2022/10/31 02:50:25;;;;;;;19.80;7.78;;;16.50;99.90;;;;;;5041829;28;20160;-86
2022/10/31 02:52:53;;;;;;;22.83;7.78;;;16.50;99.90;;;;;;5049081;28;20072;-85
2022/10/31 02:55:52;;;;;;;19.80;7.95;;;16.50;99.90;;;;;;5047941;28;20045;-86
2022/10/31 02:58:23;;;;;;;13.35;7.50;;;16.50;99.90;;;;;;5048284;28;20402;-85
2022/10/31 03:01:09;;;;;;;19.63;8.60;;;16.50;99.90;;;;;;5049140;28;20421;-86
2022/10/31 03:03:45;;;;;;;22.02;8.10;;;16.50;99.90;;;;;;5042930;28;20099;-86
2022/10/31 03:06:17;;;;;;;17.60;8.15;;;16.50;99.90;;;;;;5045031;28;20057;-86
2022/10/31 03:08:50;;;;;;;18.85;7.75;;;16.50;99.90;;;;;;5031144;28;20580;-86
2022/10/31 03:11:19;;;;;;;21.67;7.78;;;16.50;99.90;;;;;;5037442;28;20045;-86
2022/10/31 03:13:50;;;;;;;18.30;7.85;;;16.40;99.90;;;;;;5039263;28;20059;-86
2022/10/31 03:16:21;;;;;;;23.10;7.80;;;16.40;99.90;;;;;;5040065;28;20053;-86
2022/10/31 03:18:53;;;;;;;21.08;7.97;;;16.40;99.90;;;;;;5049027;28;20049;-86
2022/10/31 03:21:23;;;;;;;20.67;7.78;;;16.40;99.90;;;;;;5047760;28;20412;-86
2022/10/31 03:23:53;;;;;;;21.63;8.38;;;16.40;99.90;;;;;;5036038;28;20041;-86
2022/10/31 03:26:21;;;;;;;13.32;7.57;;;16.30;99.90;;;;;;5044855;28;20091;-86
2022/10/31 03:28:50;;;;;;;18.05;8.50;;;16.30;99.90;;;;;;5053550;28;20461;-86
2022/10/31 03:31:19;;;;;;;13.23;6.90;;;16.30;99.90;;;;;;5040047;28;20048;-85
2022/10/31 03:33:47;;;;;;;14.82;7.10;;;16.20;99.90;;;;;;5050439;28;20049;-86
2022/10/31 03:36:16;;;;;;;19.73;7.20;;;16.20;99.90;;;;;;5038485;28;20565;-86
2022/10/31 03:38:46;;;;;;;24.80;7.50;;;16.20;99.90;;;;;;5049400;28;20409;-86
2022/10/31 03:41:19;;;;;;;16.73;6.90;;;16.10;99.90;;;;;;5048480;28;20057;-86
2022/10/31 03:43:52;;;;;;;18.48;7.63;;;16.10;99.90;;;;;;5041125;28;20045;-85
2022/10/31 03:46:19;;;;;;;18.85;7.32;;;16.10;99.90;;;;;;5037252;28;20054;-86
2022/10/31 03:48:46;;;;;;;19.58;7.38;;;16.10;99.90;;;;;;5044030;28;20068;-86
2022/10/31 03:51:19;;;;;;;19.15;7.53;;;16.00;99.90;;;;;;5048403;28;20655;-86
2022/10/31 03:53:49;;;;;;;14.27;6.75;;;16.00;99.90;;;;;;5046651;28;20044;-86
2022/10/31 03:56:23;;;;;;;19.60;7.20;;;16.00;99.90;;;;;;5046069;28;20037;-85
2022/10/31 03:58:56;;;;;;;22.90;8.45;;;16.00;99.90;;;;;;5047779;28;20048;-85
2022/10/31 04:01:25;;;;;;;16.85;7.90;;;16.00;99.90;;;;;;5048006;28;20136;-85
2022/10/31 04:03:52;;;;;;;20.85;8.15;;;15.90;99.90;;;;;;5045412;28;20123;-85
2022/10/31 04:06:21;;;;;;;16.20;7.88;;;15.90;99.90;;;;;;5048134;28;20064;-86
2022/10/31 04:08:51;;;;;;;19.92;8.45;;;15.90;99.90;;;;;;5039101;28;20049;-86
2022/10/31 04:11:23;;;;;;;24.70;7.50;;;15.90;99.90;;;;;;5047432;28;20419;-85
2022/10/31 04:14:12;;;;;;;17.65;8.35;;;15.90;99.90;;;;;;5039816;28;20513;-85
2022/10/31 04:16:41;;;;;;;19.95;7.70;;;15.80;99.90;;;;;;5047479;28;20041;-86
2022/10/31 04:19:08;;;;;;;22.15;7.68;;;15.80;99.90;;;;;;5047248;28;20476;-85
2022/10/31 04:21:36;;;;;;;20.85;8.27;;;15.80;99.90;;;;;;5047913;28;20044;-85
2022/10/31 04:24:03;;;;;;;23.73;8.50;;;15.80;99.90;;;;;;5047005;28;20048;-86
2022/10/31 04:26:31;;;;;;;14.20;7.88;;;15.80;99.90;;;;;;5056853;28;20036;-86
2022/10/31 04:28:58;;;;;;;21.80;9.02;;;15.70;99.90;;;;;;5047751;28;20072;-85
2022/10/31 04:31:27;;;;;;;12.60;7.47;;;15.70;99.90;;;;;;5049637;28;20040;-88
2022/10/31 04:33:55;;;;;;;19.42;8.98;;;15.60;99.90;;;;;;5044357;28;20072;-87
2022/10/31 04:36:22;;;;;;;19.55;8.00;;;15.70;99.90;;;;;;5045220;28;20354;-86
2022/10/31 04:38:50;;;;;;;17.98;8.82;;;15.70;99.90;;;;;;5048868;28;20123;-86
2022/10/31 04:41:36;;;;;;;18.38;8.20;;;15.60;99.90;;;;;;5036331;28;20124;-86
2022/10/31 04:44:08;;;;;;;20.00;8.05;;;15.60;99.90;;;;;;5046866;28;20049;-84
2022/10/31 04:46:36;;;;;;;18.33;8.73;;;15.60;99.90;;;;;;5046861;28;20135;-85
2022/10/31 04:49:03;;;;;;;15.57;8.13;;;15.60;99.90;;;;;;5046110;28;20091;-83
2022/10/31 04:51:30;;;;;;;15.23;7.93;;;15.50;99.90;;;;;;5040649;28;20045;-83
2022/10/31 04:53:59;;;;;;;21.95;8.00;;;15.60;99.90;;;;;;5035465;28;20498;-83
2022/10/31 04:56:28;;;;;;;16.63;7.65;;;15.50;99.90;;;;;;5035232;28;20053;-84
2022/10/31 04:58:59;;;;;;;22.27;8.50;;;15.50;99.90;;;;;;5035913;28;20069;-83
2022/10/31 05:01:29;;;;;;;16.83;8.63;;;15.50;99.90;;;;;;5046601;28;20045;-83
2022/10/31 05:03:56;;;;;;;18.95;8.50;;;15.50;99.90;;;;;;5047567;28;20037;-83
2022/10/31 05:06:23;;;;;;;21.38;8.55;;;15.50;99.90;;;;;;5041197;28;20111;-83
2022/10/31 05:08:51;;;;;;;18.13;8.38;;;15.50;99.90;;;;;;5047114;28;20417;-83
2022/10/31 05:11:19;;;;;;;17.52;8.60;;;15.50;99.90;;;;;;5047151;28;20052;-83
2022/10/31 05:13:46;;;;;;;18.58;8.88;;;15.50;99.90;;;;;;5047521;28;20444;-83
2022/10/31 05:16:33;;;;;;;19.00;10.00;;;15.50;99.90;;;;;;5046676;28;20136;-83
2022/10/31 05:19:22;;;;;;;21.33;9.27;;;15.50;99.90;;;;;;5046870;28;20491;-85
2022/10/31 05:22:28;;;;;;;17.63;8.75;;;15.50;99.90;;;;;;4975416;28;20042;-87
2022/10/31 05:24:55;;;;;;;15.02;8.55;;;15.40;99.90;;;;;;4970656;28;20043;-85
2022/10/31 05:27:24;;;;;;;20.63;9.48;;;15.40;99.90;;;;;;5009004;28;20512;-87
2022/10/31 05:29:52;;;;;;;19.92;9.00;;;15.40;99.90;;;;;;5044354;28;20084;-85
2022/10/31 05:32:20;;;;;;;21.30;10.07;;;15.40;99.90;;;;;;5039307;28;20077;-85
2022/10/31 05:35:26;;;;;;;22.95;9.43;;;15.30;99.90;;;;;;5034241;28;20064;-85
2022/10/31 05:38:14;;;;;;;18.30;9.00;;;15.30;99.90;;;;;;5064696;28;20053;-84
2022/10/31 05:40:41;;;;;;;22.50;9.13;;;15.30;99.90;;;;;;5038126;28;20095;-84
2022/10/31 05:43:09;;;;;;;19.40;9.25;;;15.30;99.90;;;;;;5042728;28;20052;-84
2022/10/31 05:45:36;;;;;;;18.42;9.43;;;15.20;99.90;;;;;;5049746;28;20528;-85
2022/10/31 05:48:09;;;;;;;15.57;9.07;;;15.20;99.90;;;;;;5051239;28;20498;-82
2022/10/31 05:50:55;;;;;;;19.25;8.13;;;15.20;99.90;;;;;;5036360;28;20057;-85
2022/10/31 05:53:22;;;;;;;19.95;8.85;;;15.20;99.90;;;;;;5049014;28;20517;-83
2022/10/31 05:55:49;;;;;;;16.70;8.05;;;15.20;99.90;;;;;;5049690;28;20052;-82
2022/10/31 05:58:23;;;;;;;18.75;10.13;;;15.20;99.90;;;;;;5050291;28;20506;-82
2022/10/31 06:01:03;;;;;;;22.27;9.18;;;15.20;99.90;;;;;;5042250;28;20589;-84
2022/10/31 06:03:30;;;;;;;17.52;9.00;;;15.20;99.90;;;;;;5051181;28;20504;-82
2022/10/31 06:08:36;;;;;;;20.33;10.05;;;15.20;99.90;;;;;;5003732;28;20167;-84
2022/10/31 06:11:07;;;;;;;17.00;9.32;;;15.20;99.90;;;;;;4973623;28;20524;-84
2022/10/31 06:13:53;;;;;;;18.10;10.25;;;15.20;99.90;;;;;;4972866;28;20053;-84
2022/10/31 06:16:25;;;;;;;18.05;9.13;;;15.20;99.90;;;;;;4963711;28;20101;-85
2022/10/31 06:18:53;;;;;;;18.70;9.02;;;15.10;99.90;;;;;;4971769;28;20562;-84
2022/10/31 06:21:21;;;;;;;20.77;9.55;;;15.10;99.90;;;;;;4971005;28;20526;-85
2022/10/31 06:23:51;;;;;;;17.40;9.20;;;15.10;99.90;;;;;;4965352;28;20102;-85
2022/10/31 06:26:38;;;;;;;21.98;9.98;;;15.10;99.90;;;;;;4963211;28;20049;-82
2022/10/31 06:29:06;;;;;;;18.60;8.88;;;15.10;99.90;;;;;;4975359;28;20051;-82
2022/10/31 06:31:53;;;;;;;17.10;9.48;;;15.10;99.90;;;;;;4970039;28;20051;-82
2022/10/31 06:34:20;;;;;;;20.90;9.30;;;15.10;99.90;;;;;;4969582;28;20047;-82
2022/10/31 06:36:47;;;;;;;23.33;9.73;;;15.10;99.90;;;;;;4970393;28;20045;-82
2022/10/31 06:39:14;;;;;;;16.33;9.23;;;15.10;99.90;;;;;;4969492;28;20050;-82
2022/10/31 06:41:41;;;;;;;19.23;10.13;;;15.10;99.90;;;;;;4968914;28;20126;-82
2022/10/31 06:44:12;;;;;;;18.77;10.30;;;15.10;99.90;;;;;;4970243;28;20046;-82
2022/10/31 06:46:57;;;;;;;20.83;9.43;;;15.10;99.90;;;;;;4967711;28;20065;-82
2022/10/31 06:49:43;;;;;;;17.60;8.90;;;15.10;99.90;;;;;;4962892;28;20062;-82
2022/10/31 06:52:14;;;;;;;18.90;9.40;;;15.10;99.90;;;;;;4954763;28;20050;-82
2022/10/31 06:54:41;;;;;;;21.45;10.02;;;15.10;99.90;;;;;;4950457;28;20114;-82
2022/10/31 06:57:09;;;;;;;25.92;10.18;;;15.10;99.90;;;;;;4951078;28;20423;-82
2022/10/31 06:59:38;;;;;;;19.38;9.10;;;15.10;99.90;;;;;;4958689;28;20138;-82
2022/10/31 07:02:32;;;;;;;20.48;9.48;;;15.10;99.90;;;;;;4965752;28;20419;-82
2022/10/31 07:04:59;;;;;;;18.20;9.93;;;15.10;99.90;;;;;;4953521;28;20125;-82
2022/10/31 07:07:26;;;;;;;19.23;9.60;;;15.10;99.90;;;;;;4963770;28;20101;-82
2022/10/31 07:09:53;;;;;;;23.25;10.82;;;15.10;99.90;;;;;;4974805;28;20441;-82
2022/10/31 07:12:28;;;;;;;18.80;10.07;;;15.10;99.90;;;;;;4977447;28;20557;-86
2022/10/31 07:15:00;;;;;;;21.33;10.00;;;15.10;99.90;;;;;;4975329;28;20559;-89
2022/10/31 07:17:27;;;;;;;21.05;10.20;;;15.10;99.90;;;;;;4985628;28;20492;-86
2022/10/31 07:19:56;;;;;;;20.20;9.65;;;15.10;99.90;;;;;;4988300;28;20050;-86
2022/10/31 07:22:23;;;;;;;21.45;9.80;;;15.10;99.90;;;;;;4987822;28;20046;-84
2022/10/31 07:24:50;;;;;;;29.25;10.23;;;15.10;99.90;;;;;;4973641;28;20066;-80
2022/10/31 07:27:49;;;;;;;15.10;8.85;;;15.10;99.90;;;;;;4987426;28;20535;-81
2022/10/31 07:30:19;;;;;;;20.42;10.35;;;15.20;99.90;;;;;;4970957;28;20054;-81
2022/10/31 07:32:48;;;;;;;24.02;10.20;;;15.20;99.90;;;;;;4971253;28;20054;-81
2022/10/31 07:35:18;;;;;;;21.40;9.93;;;15.30;99.90;;;;;;4974091;28;20050;-81
2022/10/31 07:37:47;;;;;;;16.25;9.43;;;15.20;99.90;;;;;;4978645;28;20452;-81
2022/10/31 07:40:16;;;;;;;23.75;10.85;;;15.20;99.90;;;;;;4971217;28;20070;-81
2022/10/31 07:42:44;;;;;;;20.70;9.82;;;15.30;99.90;;;;;;4978093;28;20038;-81
2022/10/31 07:45:32;;;;;;;21.30;9.27;;;15.20;99.90;;;;;;4979619;28;20145;-81
2022/10/31 07:48:17;;;;;;;20.70;10.80;;;15.20;99.90;;;;;;4978988;28;20046;-81
2022/10/31 07:51:03;;;;;;;19.10;10.05;;;15.30;99.90;;;;;;4991039;28;20120;-81
2022/10/31 07:53:59;;;;;;;23.70;10.65;;;15.30;99.90;;;;;;4987037;28;20058;-81
2022/10/31 07:56:30;;;;;;;20.08;9.52;;;15.30;99.90;;;;;;4988052;28;20073;-81
2022/10/31 07:58:57;;;;;;;20.45;9.63;;;15.30;99.90;;;;;;4989339;28;20065;-81
2022/10/31 08:01:25;;;;;;;20.05;10.27;;;15.40;99.90;;;;;;4982865;28;20060;-82
2022/10/31 08:04:18;;;;;;;19.88;10.02;;;15.40;99.90;;;;;;4988983;28;20125;-82
2022/10/31 08:07:11;;;;;;;22.05;11.02;;;15.40;99.90;;;;;;4988858;28;20050;-82
2022/10/31 08:09:40;;;;;;;22.08;10.68;;;15.40;99.90;;;;;;4990433;28;20092;-82
2022/10/31 08:12:18;;;;;;;22.00;11.35;;;15.50;99.90;;;;;;4988806;28;20042;-82
2022/10/31 08:14:45;;;;;;;23.13;10.50;;;15.50;99.90;;;;;;4988699;28;20046;-82
2022/10/31 08:17:15;;;;;;;30.08;12.82;;;15.50;99.90;;;;;;4988699;28;20042;-82
2022/10/31 08:19:56;;;;;;;25.42;13.07;;;15.50;99.90;;;;;;4988819;28;20120;-81
2022/10/31 08:22:31;;;;;;;26.05;13.32;;;15.60;99.90;;;;;;4988474;28;20529;-81
2022/10/31 08:24:59;;;;;;;28.17;13.82;;;15.60;99.90;;;;;;4987393;28;20046;-82
2022/10/31 08:27:26;;;;;;;23.95;10.80;;;15.60;99.90;;;;;;4988275;28;20045;-81
2022/10/31 08:29:54;;;;;;;18.33;10.43;;;15.70;99.90;;;;;;4988023;28;20135;-81
2022/10/31 08:32:24;;;;;;;28.60;12.52;;;15.70;99.90;;;;;;4987145;28;20034;-81
2022/10/31 08:34:51;;;;;;;23.38;12.73;;;15.70;99.90;;;;;;4982764;28;20050;-81
2022/10/31 08:37:44;;;;;;;34.90;13.32;;;15.80;99.90;;;;;;4987436;28;20038;-81
2022/10/31 08:40:12;;;;;;;27.75;14.20;;;15.80;99.90;;;;;;4986909;28;20167;-81
2022/10/31 08:42:41;;;;;;;36.40;15.82;;;15.80;99.90;;;;;;4982180;28;20506;-81
2022/10/31 08:45:08;;;;;;;34.15;15.77;;;15.90;99.90;;;;;;4979281;28;20046;-81
2022/10/31 08:47:37;;;;;;;34.53;16.38;;;15.90;99.90;;;;;;4983548;28;20042;-81
2022/10/31 08:50:05;;;;;;;29.48;15.75;;;16.00;99.90;;;;;;4989018;28;20049;-81
2022/10/31 08:52:32;;;;;;;35.95;17.38;;;16.00;99.90;;;;;;4988419;28;20061;-81
2022/10/31 08:55:02;;;;;;;34.00;17.08;;;16.00;99.90;;;;;;4988620;28;20046;-81
2022/10/31 08:58:06;;;;;;;36.38;16.25;;;16.10;99.90;;;;;;4984982;28;20046;-81
2022/10/31 09:00:46;;;;;;;34.97;17.98;;;16.10;99.90;;;;;;4989562;28;20498;-81
2022/10/31 09:03:19;;;;;;;36.97;17.77;;;16.10;99.90;;;;;;4986895;28;20073;-81
2022/10/31 09:05:46;;;;;;;33.55;16.52;;;16.20;99.90;;;;;;4987505;28;20050;-81
2022/10/31 09:08:14;;;;;;;39.92;18.48;;;16.20;99.90;;;;;;4984775;28;20054;-81
2022/10/31 09:10:41;;;;;;;40.17;18.50;;;16.20;99.90;;;;;;4985573;28;20053;-81
2022/10/31 09:13:11;;;;;;;37.92;17.95;;;16.30;99.90;;;;;;4980484;28;20430;-81
2022/10/31 09:15:58;;;;;;;39.60;18.52;;;16.30;99.90;;;;;;4983655;28;20073;-81
2022/10/31 09:18:28;;;;;;;31.42;17.60;;;16.30;99.90;;;;;;4989817;28;20042;-81
2022/10/31 09:20:59;;;;;;;35.80;18.83;;;16.40;99.90;;;;;;4992034;28;20108;-81
2022/10/31 09:23:27;;;;;;;40.95;18.35;;;16.40;99.90;;;;;;4986781;28;20850;-81
2022/10/31 09:25:55;;;;;;;36.35;18.83;;;16.50;99.90;;;;;;4983278;28;20049;-81
2022/10/31 09:28:32;;;;;;;32.33;17.80;;;16.50;99.90;;;;;;4985033;28;20060;-82
2022/10/31 09:31:04;;;;;;;38.95;18.60;;;16.50;99.90;;;;;;4986632;28;20041;-82
2022/10/31 09:33:58;;;;;;;37.80;18.35;;;16.50;99.90;;;;;;4968787;28;20067;-81
2022/10/31 09:36:40;;;;;;;36.40;17.83;;;16.60;99.90;;;;;;4987716;28;20168;-81
2022/10/31 09:39:12;;;;;;;41.10;19.35;;;16.60;99.90;;;;;;4982921;28;20309;-81
2022/10/31 09:41:56;;;;;;;40.42;19.65;;;16.60;99.90;;;;;;4983231;28;20038;-82
2022/10/31 09:44:29;;;;;;;39.25;18.65;;;16.60;99.90;;;;;;4980533;28;20050;-84
2022/10/31 09:47:02;;;;;;;42.05;19.33;;;16.60;99.90;;;;;;4987665;28;20046;-83
2022/10/31 09:49:42;;;;;;;37.92;18.65;;;16.70;99.90;;;;;;4987479;28;20052;-84
2022/10/31 09:52:14;;;;;;;37.63;19.83;;;16.70;99.90;;;;;;4986396;28;20042;-83
2022/10/31 09:54:46;;;;;;;43.22;21.50;;;16.70;99.90;;;;;;4984758;28;20050;-83
2022/10/31 09:57:15;;;;;;;44.45;21.98;;;16.70;99.90;;;;;;4985617;28;20847;-84
2022/10/31 09:59:46;;;;;;;37.28;19.77;;;16.80;99.90;;;;;;4986502;28;20049;-83
2022/10/31 10:02:17;;;;;;;46.88;20.55;;;16.80;99.90;;;;;;4984721;28;20046;-83
2022/10/31 10:04:51;;;;;;;43.33;20.63;;;16.80;99.90;;;;;;4988198;28;20038;-83
2022/10/31 10:07:26;;;;;;;44.08;21.50;;;16.80;99.90;;;;;;4987577;28;20109;-84
2022/10/31 10:10:17;;;;;;;41.53;20.73;;;16.80;99.90;;;;;;4987409;28;20050;-83
2022/10/31 10:13:29;;;;;;;47.60;22.25;;;16.90;99.90;;;;;;4974748;28;20068;-83
2022/10/31 10:16:04;;;;;;;43.47;21.90;;;16.90;99.90;;;;;;4986479;28;20042;-84
2022/10/31 10:18:40;;;;;;;45.35;21.42;;;16.90;99.90;;;;;;4990461;28;20785;-84
2022/10/31 10:21:23;;;;;;;44.33;21.35;;;17.00;99.90;;;;;;4992243;28;20089;-83
2022/10/31 10:24:05;;;;;;;40.65;20.35;;;17.00;99.90;;;;;;4988938;28;20039;-83
2022/10/31 10:26:37;;;;;;;;;;;17.10;99.90;;;;;;4988744;28;20419;-83
2022/10/31 10:29:19;;;;;;;48.35;20.80;;;17.00;99.90;;;;;;4988695;28;19922;-84
2022/10/31 10:31:47;;;;;;;41.13;21.08;;;17.10;99.90;;;;;;4991745;28;20038;-84
2022/10/31 10:34:23;;;;;;;45.88;20.90;;;17.10;99.90;;;;;;4991209;28;20105;-84
2022/10/31 10:36:56;;;;;;;40.75;20.98;;;17.20;99.90;;;;;;4991155;28;20076;-84
2022/10/31 10:39:28;;;;;;;41.97;20.85;;;17.20;99.90;;;;;;4983942;28;20052;-84
2022/10/31 10:47:38;;;;;;;45.75;21.27;;;17.30;99.90;;;;;;4983585;28;20046;-84
2022/10/31 10:50:10;;;;;;;48.30;20.92;;;17.30;99.90;;;;;;4983572;28;20039;-84
2022/10/31 10:52:44;;;;;;;42.08;20.20;;;17.30;99.90;;;;;;4991952;28;20653;-84
2022/10/31 10:55:19;;;;;;;40.35;20.08;;;17.30;99.90;;;;;;5000086;28;20057;-84
2022/10/31 10:57:55;;;;;;;39.05;19.73;;;17.40;99.90;;;;;;4988928;28;20052;-83
2022/10/31 11:00:23;;;;;;;39.90;18.80;;;17.40;99.90;;;;;;4986768;28;20093;-84
2022/10/31 11:02:51;;;;;;;40.22;19.77;;;17.40;99.90;;;;;;4989862;28;20048;-83
2022/10/31 11:05:25;;;;;;;44.95;18.73;;;17.40;99.90;;;;;;4989321;28;20081;-83
2022/10/31 11:07:53;;;;;;;39.05;18.85;;;17.40;99.90;;;;;;4985323;28;20558;-84
2022/10/31 11:10:20;;;;;;;42.70;19.27;;;17.40;99.90;;;;;;4990615;28;20054;-83
2022/10/31 11:13:03;;;;;;;36.70;18.60;;;17.50;99.90;;;;;;5006173;28;20418;-84
2022/10/31 11:15:33;;;;;;;35.03;18.05;;;17.50;99.90;;;;;;4969034;28;20740;-83
2022/10/31 11:18:00;;;;;;;35.97;18.42;;;17.50;99.90;;;;;;4967792;28;20070;-84
2022/10/31 11:20:31;;;;;;;37.80;18.17;;;17.50;99.90;;;;;;4987407;28;20139;-84
2022/10/31 11:23:06;;;;;;;38.63;18.65;;;17.50;99.90;;;;;;4991048;28;20723;-83
2022/10/31 11:25:33;;;;;;;35.13;16.58;;;17.50;99.90;;;;;;4988234;28;20050;-83
2022/10/31 11:28:00;;;;;;;35.70;16.67;;;17.60;99.90;;;;;;4990743;28;20034;-83
2022/10/31 11:30:27;;;;;;;31.85;16.27;;;17.60;99.90;;;;;;4989463;28;20534;-84
2022/10/31 11:32:54;;;;;;;40.15;17.10;;;17.60;99.90;;;;;;4990377;28;20042;-84
2022/10/31 11:35:24;;;;;;;33.88;16.08;;;17.60;99.90;;;;;;4989404;28;20049;-84
2022/10/31 11:37:53;;;;;;;34.67;15.73;;;17.60;99.90;;;;;;4990018;28;20038;-84
2022/10/31 11:40:23;;;;;;;31.75;15.60;;;17.70;99.90;;;;;;4988125;28;20121;-84
2022/10/31 11:42:51;;;;;;;28.65;14.00;;;17.70;99.90;;;;;;4990212;28;20038;-83
2022/10/31 11:45:20;;;;;;;33.95;14.35;;;17.70;99.90;;;;;;4988475;28;20054;-84
2022/10/31 11:47:49;;;;;;;28.52;14.65;;;17.70;99.90;;;;;;4989667;28;20046;-83
2022/10/31 11:50:21;;;;;;;30.73;14.38;;;17.80;99.90;;;;;;4989359;28;20053;-83
2022/10/31 11:52:48;;;;;;;29.13;14.15;;;17.80;99.90;;;;;;4989517;28;20507;-84
2022/10/31 11:55:18;;;;;;;35.80;13.88;;;17.80;99.90;;;;;;4989096;28;20050;-84
2022/10/31 11:57:48;;;;;;;25.05;13.30;;;17.80;99.90;;;;;;4989534;28;20100;-84
2022/10/31 12:00:23;;;;;;;32.72;14.00;;;17.90;99.90;;;;;;4988216;28;20562;-84
2022/10/31 12:02:50;;;;;;;29.73;13.70;;;17.90;99.90;;;;;;4990164;28;20038;-84
2022/10/31 12:05:20;;;;;;;26.40;13.30;;;17.90;99.90;;;;;;4988520;28;20053;-84
2022/10/31 12:07:48;;;;;;;27.17;12.93;;;17.90;99.90;;;;;;4993205;22;20077;-86
2022/10/31 12:10:15;;;;;;;23.52;12.32;;;17.90;99.90;;;;;;4983590;28;20088;-86
2022/10/31 12:13:01;;;;;;;23.77;12.38;;;17.90;99.90;;;;;;4989449;28;20031;-86
2022/10/31 12:15:34;;;;;;;26.48;13.32;;;18.00;99.90;;;;;;4989598;28;20052;-86
2022/10/31 12:18:23;;;;;;;25.63;12.98;;;18.00;99.90;;;;;;4968281;28;20045;-86
2022/10/31 12:20:58;;;;;;;25.08;12.38;;;18.00;99.90;;;;;;4959370;28;20122;-86
2022/10/31 12:23:34;;;;;;;32.33;11.90;;;18.00;99.90;;;;;;4960585;28;20054;-86
2022/10/31 12:26:11;;;;;;;25.80;12.32;;;18.00;99.90;;;;;;4960602;28;20125;-86
2022/10/31 12:29:09;;;;;;;27.27;12.48;;;18.00;99.90;;;;;;4958334;28;20054;-86
2022/10/31 12:31:53;;;;;;;27.05;12.20;;;18.10;99.90;;;;;;4964385;28;20041;-86
2022/10/31 12:34:48;;;;;;;27.92;12.05;;;18.10;99.90;;;;;;4960186;28;20572;-86
2022/10/31 12:37:25;;;;;;;20.92;11.73;;;18.10;99.90;;;;;;4962643;28;20129;-87
2022/10/31 12:39:59;;;;;;;31.10;12.23;;;18.10;99.90;;;;;;4962071;28;20444;-86
2022/10/31 12:42:37;;;;;;;25.98;11.40;;;18.10;99.90;;;;;;4968187;28;20109;-86
2022/10/31 12:45:31;;;;;;;25.92;11.45;;;18.20;99.90;;;;;;4959773;28;20105;-86
2022/10/31 12:48:19;;;;;;;20.90;10.93;;;18.20;99.90;;;;;;4957781;28;20138;-87
2022/10/31 12:50:53;;;;;;;22.80;11.05;;;18.20;99.90;;;;;;4956590;28;20126;-86
2022/10/31 12:53:31;;;;;;;26.30;10.52;;;18.20;99.90;;;;;;4956947;28;20055;-86
2022/10/31 12:56:07;;;;;;;23.38;9.52;;;18.20;99.90;;;;;;4972489;28;20050;-93
2022/10/31 12:58:36;;;;;;;25.55;11.13;;;18.20;99.90;;;;;;4971062;28;20042;-86
2022/10/31 13:01:09;;;;;;;23.67;10.25;;;18.20;99.90;;;;;;4963294;28;20031;-86
2022/10/31 13:03:42;;;;;;;28.30;10.15;;;18.30;99.90;;;;;;4979545;28;20047;-84
2022/10/31 13:06:14;;;;;;;23.42;10.00;;;18.30;99.90;;;;;;4962792;28;20482;-84
2022/10/31 13:08:45;;;;;;;24.25;9.50;;;18.30;99.90;;;;;;4985434;28;20050;-85
2022/10/31 13:11:16;;;;;;;24.83;9.40;;;18.40;99.90;;;;;;4985772;28;20507;-85